Kapalua Airport Lahaina US
ICAO: PHJH
IATA:
Category: Medium
Scheduled Services:

Elevation: 256 ft
TransAlt. 0 ft.

Airport Communications:
AWOS:118.525
MAUI RDO:123.6
CTAF/UNICOM:122.7

PHJH Zoom In..

If Map Doesn't Load, Click Here

Runways:

(A) RW 02 length 3000 ft width 100 ft
---- / hdg 17

(B) RW 20 length 3000 ft width 100 ft
---- / hdg 197

Location; PHJH
Day. 21 / Time. 03.50 Zulu
* Altimeter: 29.88
* Temperature: 28° c. 82.4°f.
* Wind from: 060° Speed 12 kn.
Dewpoint: 22° c.
Visibility: 15 Statute Miles.
Clouds: Few 2500 ft.

PHJH 210350Z 06012KT 15SM FEW025 28/22 A2988 RMK LAST


Wind From 060°
Speed 12 kn.

 
 
jpsmedia.com for Web Design worldairports.se 2018   terms of use